Time;durP1;ratioP1;P1;durP2;ratioP2;P2;SDS_P1;SDS_P2;PMS_P1;PMS_P2;Temp;Humidity;BMP_temperature;BMP_pressure;BME280_temperature;BME280_humidity;BME280_pressure;Samples;Min_cycle;Max_cycle;Signal;HPM_P1;HPM_P2
2021/01/29 00:00:41;;;;;;;14.57;10.50;;;0.00;99.90;;;;;;5036800;28;20053;-64
2021/01/29 00:03:15;;;;;;;11.77;9.38;;;0.00;99.90;;;;;;5040519;28;20041;-64
2021/01/29 00:05:44;;;;;;;13.73;10.35;;;0.00;99.90;;;;;;5036181;28;20053;-65
2021/01/29 00:08:12;;;;;;;13.73;9.10;;;0.00;99.90;;;;;;5039927;28;20076;-68
2021/01/29 00:10:39;;;;;;;14.82;9.20;;;-0.10;99.90;;;;;;5036292;28;20099;-65
2021/01/29 00:13:06;;;;;;;15.88;10.93;;;-0.10;99.90;;;;;;5039670;28;20045;-69
2021/01/29 00:15:33;;;;;;;12.82;9.10;;;-0.10;99.90;;;;;;5033706;28;20128;-70
2021/01/29 00:18:01;;;;;;;15.52;11.65;;;-0.20;99.90;;;;;;5045083;28;20044;-65
2021/01/29 00:20:29;;;;;;;13.75;9.38;;;-0.20;99.90;;;;;;5039231;28;20053;-65
2021/01/29 00:22:57;;;;;;;10.68;8.88;;;-0.20;99.90;;;;;;5037683;28;20070;-67
2021/01/29 00:25:37;;;;;;;15.32;10.10;;;-0.20;99.90;;;;;;5041507;28;20122;-64
2021/01/29 00:28:05;;;;;;;11.10;8.07;;;-0.20;99.90;;;;;;5040690;28;20040;-67
2021/01/29 00:30:33;;;;;;;16.75;10.27;;;-0.20;99.90;;;;;;5039244;28;21695;-66
2021/01/29 00:33:00;;;;;;;21.75;12.52;;;-0.20;99.90;;;;;;5038180;28;20477;-64
2021/01/29 00:35:30;;;;;;;13.82;10.55;;;-0.20;99.90;;;;;;5037003;28;20041;-66
2021/01/29 00:37:57;;;;;;;14.77;11.00;;;-0.30;99.90;;;;;;5038019;28;20141;-65
2021/01/29 00:40:24;;;;;;;14.32;10.63;;;-0.30;99.90;;;;;;5041354;28;20103;-67
2021/01/29 00:43:09;;;;;;;13.10;10.07;;;-0.30;99.90;;;;;;5037896;28;20867;-65
2021/01/29 00:45:39;;;;;;;16.23;11.05;;;-0.30;99.90;;;;;;5042296;28;20073;-66
2021/01/29 00:48:07;;;;;;;19.58;11.30;;;-0.30;99.90;;;;;;5036213;28;20099;-69
2021/01/29 00:50:34;;;;;;;15.32;11.93;;;-0.30;99.90;;;;;;5038725;28;20052;-63
2021/01/29 00:53:01;;;;;;;17.13;11.05;;;-0.30;99.90;;;;;;5034897;28;20045;-64
2021/01/29 00:55:28;;;;;;;16.58;11.10;;;-0.30;99.90;;;;;;5034032;28;20685;-67
2021/01/29 00:57:59;;;;;;;15.70;10.40;;;-0.30;99.90;;;;;;5035295;28;20047;-65
2021/01/29 01:00:52;;;;;;;19.15;12.88;;;-0.30;99.90;;;;;;5039126;28;20407;-67
2021/01/29 01:03:24;;;;;;;15.43;11.52;;;-0.30;99.90;;;;;;5033478;28;20138;-64
2021/01/29 01:05:50;;;;;;;15.32;10.15;;;-0.30;99.90;;;;;;5040980;28;20500;-66
2021/01/29 01:08:28;;;;;;;13.90;10.50;;;-0.30;99.90;;;;;;5031219;28;20053;-64
2021/01/29 01:11:03;;;;;;;13.68;10.70;;;-0.30;99.90;;;;;;5040851;28;20049;-65
2021/01/29 01:14:00;;;;;;;14.02;10.30;;;-0.20;99.90;;;;;;5025799;28;20045;-66
2021/01/29 01:16:42;;;;;;;14.80;11.02;;;-0.20;99.90;;;;;;5038000;28;20057;-66
2021/01/29 01:19:29;;;;;;;14.63;10.43;;;-0.20;99.90;;;;;;5035724;28;20154;-67
2021/01/29 01:22:04;;;;;;;14.45;11.38;;;-0.10;99.90;;;;;;5036042;28;20045;-70
2021/01/29 01:24:54;;;;;;;17.05;10.90;;;-0.10;99.90;;;;;;5037934;28;20041;-70
2021/01/29 01:27:20;;;;;;;15.57;10.32;;;-0.10;99.90;;;;;;5036388;28;20043;-70
2021/01/29 01:30:09;;;;;;;14.52;10.73;;;-0.10;99.90;;;;;;5035277;28;20106;-65
2021/01/29 01:32:39;;;;;;;16.25;10.50;;;-0.10;99.90;;;;;;5037407;28;20045;-68
2021/01/29 01:35:18;;;;;;;14.68;11.23;;;-0.10;99.90;;;;;;5036414;28;20072;-65
2021/01/29 01:37:45;;;;;;;12.95;10.27;;;-0.10;99.90;;;;;;5040043;28;20057;-68
2021/01/29 01:40:41;;;;;;;13.52;10.18;;;-0.10;99.90;;;;;;5031219;28;20144;-69
2021/01/29 01:43:13;;;;;;;14.55;11.40;;;-0.10;99.90;;;;;;5038642;28;20095;-65
2021/01/29 01:45:56;;;;;;;15.70;10.05;;;-0.10;99.90;;;;;;5034628;28;20052;-66
2021/01/29 01:48:50;;;;;;;14.55;11.27;;;0.00;99.90;;;;;;5038483;28;20044;-64
2021/01/29 01:52:00;;;;;;;16.73;11.70;;;0.00;99.90;;;;;;5025710;28;20041;-67
2021/01/29 01:54:36;;;;;;;17.90;11.20;;;0.00;99.90;;;;;;5035472;28;20041;-67
2021/01/29 01:57:04;;;;;;;15.95;11.00;;;0.00;99.90;;;;;;5034365;28;20129;-64
2021/01/29 01:59:42;;;;;;;15.90;10.32;;;0.10;99.90;;;;;;5035375;28;20045;-69
2021/01/29 02:02:18;;;;;;;13.27;8.35;;;0.10;99.90;;;;;;5037981;28;20045;-67
2021/01/29 02:05:09;;;;;;;12.75;9.45;;;0.10;99.90;;;;;;5036262;28;20055;-67
2021/01/29 02:08:07;;;;;;;11.07;7.10;;;0.20;99.90;;;;;;5033839;28;20060;-66
2021/01/29 02:11:10;;;;;;;9.88;7.50;;;0.20;99.90;;;;;;5034562;28;20049;-68
2021/01/29 02:13:51;;;;;;;12.63;6.65;;;0.20;99.90;;;;;;5038155;28;20049;-64
2021/01/29 02:17:15;;;;;;;9.52;7.30;;;0.20;99.90;;;;;;5030719;28;20049;-67
2021/01/29 02:20:31;;;;;;;7.30;6.05;;;0.20;99.90;;;;;;5009545;28;20716;-65
2021/01/29 02:23:27;;;;;;;7.43;6.15;;;0.30;99.90;;;;;;5032074;28;20578;-67
2021/01/29 02:26:11;;;;;;;9.02;6.75;;;0.20;99.90;;;;;;5037352;28;20103;-66
2021/01/29 02:29:26;;;;;;;8.95;6.60;;;0.30;99.90;;;;;;5035033;28;20385;-64
2021/01/29 02:32:31;;;;;;;5.70;4.95;;;0.30;99.90;;;;;;5045195;28;20041;-63
2021/01/29 02:35:09;;;;;;;6.32;4.70;;;0.20;99.90;;;;;;5034363;28;20464;-65
2021/01/29 02:38:00;;;;;;;4.80;3.50;;;0.20;99.90;;;;;;5034461;28;20269;-67
2021/01/29 02:41:05;;;;;;;2.83;2.30;;;0.20;99.90;;;;;;5037575;28;20060;-70
2021/01/29 02:43:54;;;;;;;2.92;2.55;;;0.20;99.90;;;;;;5032031;28;20056;-66
2021/01/29 02:46:58;;;;;;;3.95;2.30;;;0.20;99.90;;;;;;5035512;28;20051;-70
2021/01/29 02:50:04;;;;;;;4.47;3.28;;;0.20;99.90;;;;;;5036547;28;20060;-65
2021/01/29 02:53:09;;;;;;;4.00;2.17;;;0.20;99.90;;;;;;5032833;28;20524;-66
2021/01/29 02:56:20;;;;;;;2.30;2.10;;;0.20;99.90;;;;;;5020476;28;20080;-68
2021/01/29 02:59:29;;;;;;;2.55;1.98;;;0.20;99.90;;;;;;5034899;28;20470;-67
2021/01/29 03:02:58;;;;;;;3.72;2.40;;;0.10;99.90;;;;;;5009064;28;20037;-64
2021/01/29 03:05:43;;;;;;;3.42;2.03;;;0.10;99.90;;;;;;5035909;28;20041;-66
2021/01/29 03:08:30;;;;;;;2.95;2.08;;;0.00;99.90;;;;;;5033502;28;20060;-66
2021/01/29 03:11:41;;;;;;;1.80;1.70;;;0.00;99.90;;;;;;5040296;28;20048;-64
2021/01/29 03:14:39;;;;;;;2.78;2.50;;;0.00;99.90;;;;;;5019902;28;20037;-69
2021/01/29 03:17:31;;;;;;;2.35;2.15;;;0.00;99.90;;;;;;5031944;28;20444;-69
2021/01/29 03:20:19;;;;;;;3.33;2.53;;;0.00;99.90;;;;;;5034691;28;20052;-68
2021/01/29 03:23:40;;;;;;;2.13;1.92;;;0.00;99.90;;;;;;5012470;28;20735;-67
2021/01/29 03:26:36;;;;;;;2.40;1.65;;;0.00;99.90;;;;;;5015793;28;20084;-66
2021/01/29 03:29:24;;;;;;;3.90;1.67;;;0.00;99.90;;;;;;5030399;28;20175;-64
2021/01/29 03:32:12;;;;;;;4.38;2.95;;;0.00;99.90;;;;;;5040304;28;20234;-66
2021/01/29 03:35:07;;;;;;;2.95;1.90;;;0.00;99.90;;;;;;5039053;28;20810;-68
2021/01/29 03:37:56;;;;;;;3.40;1.90;;;0.00;99.90;;;;;;5035478;28;20060;-64
2021/01/29 03:40:43;;;;;;;3.47;2.30;;;0.00;99.90;;;;;;5036624;28;20122;-64
2021/01/29 03:43:46;;;;;;;3.90;2.92;;;-0.10;99.90;;;;;;5041216;28;20130;-66
2021/01/29 03:46:50;;;;;;;5.05;3.08;;;0.00;99.90;;;;;;5037063;28;20060;-64
2021/01/29 03:49:53;;;;;;;5.95;3.40;;;-0.10;99.90;;;;;;5033010;28;20138;-68
2021/01/29 03:53:05;;;;;;;4.22;2.60;;;-0.10;99.90;;;;;;5030809;28;20552;-68
2021/01/29 03:56:07;;;;;;;4.50;3.03;;;-0.10;99.90;;;;;;5037444;28;20051;-64
2021/01/29 03:59:09;;;;;;;4.47;2.50;;;-0.10;99.90;;;;;;5036771;28;20099;-69
2021/01/29 04:02:20;;;;;;;4.30;2.30;;;-0.20;99.90;;;;;;5039919;28;20396;-66
2021/01/29 04:05:33;;;;;;;3.85;2.30;;;-0.20;99.90;;;;;;5039304;28;20052;-68
2021/01/29 04:08:36;;;;;;;6.07;2.55;;;-0.30;99.90;;;;;;5039243;28;20140;-66
2021/01/29 04:11:46;;;;;;;3.95;2.08;;;-0.30;99.90;;;;;;5003370;28;20050;-66
2021/01/29 04:14:42;;;;;;;6.90;3.35;;;-0.30;99.90;;;;;;5034767;28;20142;-68
2021/01/29 04:17:25;;;;;;;3.25;2.08;;;-0.30;99.90;;;;;;5036495;28;20052;-64
2021/01/29 04:19:59;;;;;;;3.80;1.80;;;-0.40;99.90;;;;;;5039858;28;21507;-66
2021/01/29 04:22:34;;;;;;;2.35;1.92;;;-0.40;99.90;;;;;;5029174;28;20049;-66
2021/01/29 04:25:31;;;;;;;1.73;1.52;;;-0.40;99.90;;;;;;5038963;28;20129;-63
2021/01/29 04:28:06;;;;;;;2.47;1.55;;;-0.40;99.90;;;;;;5035639;28;20132;-66
2021/01/29 04:30:36;;;;;;;3.25;1.30;;;-0.40;99.90;;;;;;5034327;28;20127;-68
2021/01/29 04:33:10;;;;;;;3.28;1.17;;;-0.40;99.90;;;;;;5038775;28;20040;-67
2021/01/29 04:35:38;;;;;;;1.85;1.75;;;-0.40;99.90;;;;;;5039741;28;20079;-66
2021/01/29 04:38:34;;;;;;;2.25;1.35;;;-0.40;99.90;;;;;;5037496;28;20052;-64
2021/01/29 04:41:22;;;;;;;3.42;1.30;;;-0.40;99.90;;;;;;5036549;28;20133;-65
2021/01/29 04:44:26;;;;;;;2.50;1.67;;;-0.50;99.90;;;;;;5040504;28;20505;-65
2021/01/29 04:47:32;;;;;;;1.30;0.75;;;-0.50;99.90;;;;;;5032704;28;20182;-65
2021/01/29 04:50:06;;;;;;;3.10;1.83;;;-0.50;99.90;;;;;;5039326;28;20457;-64
2021/01/29 04:53:10;;;;;;;1.38;1.10;;;-0.50;99.90;;;;;;5032680;28;20049;-64
2021/01/29 04:56:05;;;;;;;2.88;1.42;;;-0.50;99.90;;;;;;5038162;28;20064;-64
2021/01/29 04:58:43;;;;;;;3.65;1.13;;;-0.50;99.90;;;;;;5037781;28;20048;-64
2021/01/29 05:01:47;;;;;;;1.67;1.20;;;-0.60;99.90;;;;;;5036234;28;20044;-68
2021/01/29 05:05:00;;;;;;;2.30;1.33;;;-0.60;99.90;;;;;;5035140;28;20097;-66
2021/01/29 05:08:01;;;;;;;1.95;1.27;;;-0.60;99.90;;;;;;5034694;28;20511;-68
2021/01/29 05:10:56;;;;;;;2.38;1.33;;;-0.60;99.90;;;;;;5034330;28;20242;-70
2021/01/29 05:13:55;;;;;;;2.38;1.23;;;-0.60;99.90;;;;;;5035633;28;20128;-65
2021/01/29 05:17:12;;;;;;;2.15;1.73;;;-0.60;99.90;;;;;;5024451;28;20361;-65
2021/01/29 05:20:30;;;;;;;1.88;1.30;;;-0.70;99.90;;;;;;5038566;28;20114;-65
2021/01/29 05:23:35;;;;;;;2.10;1.23;;;-0.70;99.90;;;;;;5032723;28;20148;-65
2021/01/29 05:26:19;;;;;;;2.17;1.50;;;-0.70;99.90;;;;;;5035524;28;20068;-64
2021/01/29 05:29:15;;;;;;;3.20;1.85;;;-0.70;99.90;;;;;;5030369;28;20103;-70
2021/01/29 05:32:21;;;;;;;2.15;1.55;;;-0.70;99.90;;;;;;5040346;28;20044;-70
2021/01/29 05:35:11;;;;;;;2.70;1.58;;;-0.70;99.90;;;;;;5034863;28;20044;-67
2021/01/29 05:38:23;;;;;;;2.67;1.50;;;-0.70;99.90;;;;;;5039077;28;20765;-64
2021/01/29 05:41:23;;;;;;;2.03;1.55;;;-0.70;99.90;;;;;;5035742;28;20507;-66
2021/01/29 05:44:34;;;;;;;3.25;1.80;;;-0.80;99.90;;;;;;5038322;28;20107;-64
2021/01/29 05:47:28;;;;;;;2.42;2.15;;;-0.80;99.90;;;;;;5018654;28;20041;-69
2021/01/29 05:50:46;;;;;;;2.95;1.95;;;-0.80;99.90;;;;;;5032899;28;20113;-68
2021/01/29 05:53:56;;;;;;;4.53;2.10;;;-0.80;99.90;;;;;;5027206;28;20052;-63
2021/01/29 05:56:34;;;;;;;5.50;2.08;;;-0.80;99.90;;;;;;5033210;28;20044;-65
2021/01/29 05:59:20;;;;;;;2.10;1.80;;;-0.80;99.90;;;;;;5044592;28;20053;-68
2021/01/29 06:02:22;;;;;;;2.72;2.20;;;-0.80;99.90;;;;;;5034574;28;20132;-67
2021/01/29 06:05:27;;;;;;;3.72;1.92;;;-0.80;99.90;;;;;;5036212;28;20123;-66
2021/01/29 06:08:05;;;;;;;2.83;1.63;;;-0.80;99.90;;;;;;5035547;28;20075;-65
2021/01/29 06:11:05;;;;;;;2.97;2.22;;;-0.80;99.90;;;;;;5036911;28;20162;-64
2021/01/29 06:13:43;;;;;;;2.47;1.95;;;-0.80;99.90;;;;;;5040205;28;20798;-67
2021/01/29 06:16:28;;;;;;;1.60;1.50;;;-0.80;99.90;;;;;;5033069;28;20466;-65
2021/01/29 06:19:53;;;;;;;2.63;1.92;;;-0.80;99.90;;;;;;5042877;28;20056;-68
2021/01/29 06:22:41;;;;;;;3.10;2.20;;;-0.80;99.90;;;;;;5033669;28;20045;-65
2021/01/29 06:25:40;;;;;;;4.75;3.83;;;-0.90;99.90;;;;;;5038970;28;20044;-70
2021/01/29 06:28:06;;;;;;;4.03;2.60;;;-0.80;99.90;;;;;;5025905;28;20053;-63
2021/01/29 06:30:47;;;;;;;3.70;2.05;;;-0.80;99.90;;;;;;5036963;28;20049;-67
2021/01/29 06:33:42;;;;;;;2.05;1.52;;;-0.80;99.90;;;;;;5034335;28;20063;-65
2021/01/29 06:36:46;;;;;;;2.15;1.80;;;-0.80;99.90;;;;;;5038201;28;20417;-69
2021/01/29 06:39:35;;;;;;;2.63;2.30;;;-0.80;99.90;;;;;;5035125;28;22051;-67
2021/01/29 06:42:02;;;;;;;2.88;2.28;;;-0.80;99.90;;;;;;5023910;28;20135;-67
2021/01/29 06:44:46;;;;;;;4.32;2.80;;;-0.80;99.90;;;;;;5028940;28;20124;-68
2021/01/29 06:47:39;;;;;;;2.53;2.03;;;-0.80;99.90;;;;;;5030814;28;20037;-67
2021/01/29 06:50:41;;;;;;;2.45;1.92;;;-0.80;99.90;;;;;;5014997;28;20713;-65
2021/01/29 06:53:26;;;;;;;2.17;1.70;;;-0.70;99.90;;;;;;5003588;28;20064;-64
2021/01/29 06:56:11;;;;;;;3.90;1.98;;;-0.70;99.90;;;;;;5030497;28;20053;-66
2021/01/29 06:59:18;;;;;;;4.60;2.33;;;-0.80;99.90;;;;;;5029261;28;20059;-64
2021/01/29 07:02:07;;;;;;;8.98;2.95;;;-0.80;99.90;;;;;;5033132;28;20045;-64
2021/01/29 07:04:52;;;;;;;3.38;2.80;;;-0.70;99.90;;;;;;5031159;28;20187;-64
2021/01/29 07:07:30;;;;;;;4.03;2.38;;;-0.70;99.90;;;;;;5027745;28;20131;-66
2021/01/29 07:10:14;;;;;;;2.33;2.13;;;-0.70;99.90;;;;;;5032511;28;20046;-63
2021/01/29 07:13:25;;;;;;;3.38;2.88;;;-0.70;99.90;;;;;;5034258;28;20139;-68
2021/01/29 07:16:26;;;;;;;5.60;3.05;;;-0.80;99.90;;;;;;5031522;28;20430;-63
2021/01/29 07:19:04;;;;;;;5.53;3.13;;;-0.70;99.90;;;;;;5030491;28;20925;-64
2021/01/29 07:22:04;;;;;;;5.07;3.60;;;-0.70;99.90;;;;;;5028705;28;20572;-66
2021/01/29 07:24:55;;;;;;;6.32;3.47;;;-0.70;99.90;;;;;;5031078;28;20044;-66
2021/01/29 07:27:52;;;;;;;5.43;3.60;;;-0.70;99.90;;;;;;5032117;28;20045;-65
2021/01/29 07:30:34;;;;;;;7.15;3.45;;;-0.70;99.90;;;;;;5028026;28;20048;-68
2021/01/29 07:33:06;;;;;;;6.82;4.35;;;-0.80;99.90;;;;;;5032418;28;20137;-63
2021/01/29 07:35:44;;;;;;;7.82;3.63;;;-0.80;99.90;;;;;;5035574;28;20053;-65
2021/01/29 07:38:13;;;;;;;5.28;3.38;;;-0.80;99.90;;;;;;5032507;28;20075;-64
2021/01/29 07:40:55;;;;;;;5.38;2.80;;;-0.80;99.90;;;;;;5034636;28;20159;-64
2021/01/29 07:43:47;;;;;;;4.20;3.15;;;-0.90;99.90;;;;;;5031270;28;20056;-65
2021/01/29 07:46:32;;;;;;;6.15;3.90;;;-1.00;99.90;;;;;;5031704;28;20072;-63
2021/01/29 07:49:24;;;;;;;6.60;4.25;;;-1.00;99.90;;;;;;5030358;28;20670;-64
2021/01/29 07:51:59;;;;;;;5.28;3.67;;;-1.00;99.90;;;;;;5033259;28;20106;-65
2021/01/29 07:54:55;;;;;;;3.92;3.08;;;-1.00;99.90;;;;;;5029924;28;20045;-64
2021/01/29 07:57:34;;;;;;;5.32;3.50;;;-0.90;99.90;;;;;;5038305;28;20563;-63
2021/01/29 08:00:08;;;;;;;4.95;3.30;;;-0.80;99.90;;;;;;5036756;28;20127;-65
2021/01/29 08:02:50;;;;;;;;;;;-0.80;99.90;;;;;;5039971;28;20516;-63
2021/01/29 08:05:31;;;;;;;5.68;3.63;;;-0.80;99.90;;;;;;5035643;28;19929;-64
2021/01/29 08:08:07;;;;;;;6.95;3.72;;;-0.80;99.90;;;;;;5040160;28;20469;-66
2021/01/29 08:10:37;;;;;;;3.70;2.78;;;-0.80;99.90;;;;;;5034105;28;20492;-63
2021/01/29 08:13:32;;;;;;;4.78;3.75;;;-0.80;99.90;;;;;;5040299;28;20041;-64
2021/01/29 08:16:01;;;;;;;3.85;2.83;;;-0.80;99.90;;;;;;5031091;28;20560;-66
2021/01/29 08:18:56;;;;;;;3.80;2.83;;;-0.70;99.90;;;;;;5036872;28;20389;-67
2021/01/29 08:21:48;;;;;;;5.20;3.30;;;-0.70;99.90;;;;;;5035534;28;20057;-65
2021/01/29 08:24:21;;;;;;;3.65;3.33;;;-0.70;99.90;;;;;;5034448;28;20160;-64
2021/01/29 08:27:30;;;;;;;6.15;2.78;;;-0.70;99.90;;;;;;5036751;28;20056;-64
2021/01/29 08:30:28;;;;;;;4.13;2.90;;;-0.60;99.90;;;;;;5039162;28;20056;-64
2021/01/29 08:33:44;;;;;;;;;;;-0.60;99.90;;;;;;5032666;28;20128;-64
2021/01/29 08:36:38;;;;;;;3.13;2.63;;;-0.60;99.90;;;;;;5037959;28;20300;-66
2021/01/29 08:39:20;;;;;;;3.58;2.58;;;-0.60;99.90;;;;;;5031246;28;20103;-66
2021/01/29 08:41:54;;;;;;;2.97;2.50;;;-0.60;99.90;;;;;;5039467;28;20320;-65
2021/01/29 08:44:30;;;;;;;2.70;2.50;;;-0.50;99.90;;;;;;5036661;28;20224;-68
2021/01/29 08:47:02;;;;;;;2.78;2.50;;;-0.50;99.90;;;;;;5039925;28;20385;-65
2021/01/29 08:49:50;;;;;;;5.28;2.38;;;-0.40;99.90;;;;;;5034807;28;20182;-65
2021/01/29 08:52:35;;;;;;;5.38;2.50;;;-0.40;99.90;;;;;;5036825;28;20045;-64
2021/01/29 08:55:25;;;;;;;2.92;2.25;;;-0.30;99.90;;;;;;5036281;28;20037;-64
2021/01/29 08:58:11;;;;;;;3.55;2.38;;;-0.20;99.90;;;;;;5039113;28;20048;-65
2021/01/29 09:00:40;;;;;;;2.13;1.90;;;-0.10;99.90;;;;;;5034982;28;20049;-63
2021/01/29 09:03:25;;;;;;;3.03;2.00;;;0.00;99.90;;;;;;5036848;28;20802;-65
2021/01/29 09:06:10;;;;;;;3.50;1.90;;;0.00;99.90;;;;;;5035000;28;20045;-67
2021/01/29 09:08:37;;;;;;;2.58;2.30;;;0.10;99.90;;;;;;5034030;28;20055;-65
2021/01/29 09:11:15;;;;;;;3.88;3.17;;;0.10;99.90;;;;;;5034165;28;20131;-65
2021/01/29 09:13:43;;;;;;;2.72;2.45;;;0.00;99.90;;;;;;5034907;28;20056;-64
2021/01/29 09:16:25;;;;;;;6.50;3.45;;;0.10;99.90;;;;;;5032191;28;20571;-67
2021/01/29 09:19:13;;;;;;;3.72;2.50;;;0.10;99.90;;;;;;5035741;28;20053;-66
2021/01/29 09:22:21;;;;;;;3.47;3.17;;;0.10;99.90;;;;;;5034212;28;20048;-66
2021/01/29 09:25:09;;;;;;;3.30;3.00;;;0.20;99.90;;;;;;5032870;28;20076;-65
2021/01/29 09:27:57;;;;;;;3.38;2.92;;;0.30;99.90;;;;;;5037747;28;20067;-64
2021/01/29 09:30:44;;;;;;;3.83;2.95;;;0.40;99.90;;;;;;5032846;28;20049;-65
2021/01/29 09:33:23;;;;;;;3.55;2.70;;;0.40;99.90;;;;;;5034366;28;20082;-64
2021/01/29 09:36:00;;;;;;;5.85;3.80;;;0.40;99.90;;;;;;5035832;28;20159;-67
2021/01/29 09:38:35;;;;;;;5.53;4.03;;;0.50;99.90;;;;;;5032586;28;20140;-64
2021/01/29 09:41:22;;;;;;;4.93;3.75;;;0.40;99.90;;;;;;5031689;28;20572;-64
2021/01/29 09:43:48;;;;;;;4.38;3.83;;;0.40;99.90;;;;;;5032108;28;20064;-69
2021/01/29 09:46:33;;;;;;;5.60;3.67;;;0.40;99.90;;;;;;5032059;28;20206;-63
2021/01/29 09:49:22;;;;;;;4.82;3.92;;;0.40;99.90;;;;;;5034090;28;20536;-64
2021/01/29 09:52:04;;;;;;;5.18;4.35;;;0.40;99.90;;;;;;5031249;28;20056;-65
2021/01/29 09:54:31;;;;;;;5.40;3.42;;;0.40;99.90;;;;;;5026566;28;20142;-63
2021/01/29 09:57:29;;;;;;;4.20;3.60;;;0.40;99.90;;;;;;5029550;28;20147;-70
2021/01/29 10:00:21;;;;;;;5.07;3.75;;;0.40;99.90;;;;;;5033141;28;20068;-65
2021/01/29 10:03:04;;;;;;;4.43;3.97;;;0.40;99.90;;;;;;5030344;28;20052;-65
2021/01/29 10:05:50;;;;;;;3.60;3.05;;;0.40;99.90;;;;;;5034523;28;20056;-68
2021/01/29 10:08:28;;;;;;;3.50;2.75;;;0.40;99.90;;;;;;5030704;28;20071;-68
2021/01/29 10:11:11;;;;;;;3.78;2.35;;;0.30;99.90;;;;;;5026607;28;20184;-65
2021/01/29 10:13:48;;;;;;;3.05;2.17;;;0.30;99.90;;;;;;5035942;28;20064;-66
2021/01/29 10:16:30;;;;;;;2.60;2.15;;;0.30;99.90;;;;;;5031046;28;20071;-68
2021/01/29 10:19:08;;;;;;;4.65;2.72;;;0.30;99.90;;;;;;5036280;28;20095;-67
2021/01/29 10:21:56;;;;;;;3.35;2.60;;;0.30;99.90;;;;;;5034044;28;20052;-66
2021/01/29 10:24:40;;;;;;;3.67;2.80;;;0.30;99.90;;;;;;5031784;28;20037;-64
2021/01/29 10:27:26;;;;;;;3.40;2.60;;;0.30;99.90;;;;;;5034401;28;20063;-63
2021/01/29 10:30:01;;;;;;;2.95;2.20;;;0.20;99.90;;;;;;5028803;28;20056;-63
2021/01/29 10:32:33;;;;;;;3.88;3.00;;;0.20;99.90;;;;;;5028294;28;20055;-64
2021/01/29 10:35:17;;;;;;;4.00;3.13;;;0.30;99.90;;;;;;5031688;28;20139;-65
2021/01/29 10:37:54;;;;;;;5.53;3.20;;;0.40;99.90;;;;;;5027565;28;20047;-67
2021/01/29 10:40:30;;;;;;;4.03;2.88;;;0.50;99.90;;;;;;5023661;28;20135;-64
2021/01/29 10:43:05;;;;;;;3.78;3.17;;;0.60;99.90;;;;;;5029549;28;20046;-66
2021/01/29 10:45:57;;;;;;;3.20;2.90;;;0.60;99.90;;;;;;5032563;28;20775;-65
2021/01/29 10:48:27;;;;;;;5.97;2.47;;;0.60;99.90;;;;;;5031341;28;20056;-66
2021/01/29 10:51:01;;;;;;;5.03;3.35;;;0.60;99.90;;;;;;5025806;28;20521;-63
2021/01/29 10:53:28;;;;;;;4.70;3.08;;;0.60;99.90;;;;;;5031437;28;20202;-64
2021/01/29 10:56:08;;;;;;;3.88;2.85;;;0.50;99.90;;;;;;5029800;28;20129;-64
2021/01/29 10:59:04;;;;;;;2.38;2.03;;;0.40;99.90;;;;;;5035446;28;20080;-65
2021/01/29 11:01:38;;;;;;;3.22;2.80;;;0.40;99.90;;;;;;5030913;28;20048;-66
2021/01/29 11:04:06;;;;;;;4.38;3.35;;;0.50;99.90;;;;;;5036519;28;20076;-65
2021/01/29 11:06:59;;;;;;;4.95;2.95;;;0.60;99.90;;;;;;5027107;28;20042;-67
2021/01/29 11:09:35;;;;;;;3.67;2.92;;;0.60;99.90;;;;;;5037015;28;20079;-66
2021/01/29 11:12:30;;;;;;;4.60;3.30;;;0.60;99.90;;;;;;5030128;28;20099;-64
2021/01/29 11:15:20;;;;;;;5.28;3.10;;;0.60;99.90;;;;;;5035659;28;20065;-63
2021/01/29 11:18:16;;;;;;;3.63;2.53;;;0.70;99.90;;;;;;5030789;28;20049;-68
2021/01/29 11:20:43;;;;;;;3.22;2.92;;;0.70;99.90;;;;;;5033216;28;20246;-65
2021/01/29 11:23:39;;;;;;;3.58;3.22;;;0.70;99.90;;;;;;5032463;28;20085;-65
2021/01/29 11:26:14;;;;;;;2.83;2.33;;;0.70;99.90;;;;;;5040380;28;20071;-65
2021/01/29 11:29:20;;;;;;;3.00;2.65;;;0.70;99.90;;;;;;5031924;28;20492;-66
2021/01/29 11:32:01;;;;;;;3.08;2.42;;;0.70;99.90;;;;;;5018363;28;20897;-66
2021/01/29 11:34:31;;;;;;;5.50;2.83;;;0.60;99.90;;;;;;5032790;28;20052;-65
2021/01/29 11:37:08;;;;;;;3.92;3.50;;;0.60;99.90;;;;;;5047362;28;20514;-64
2021/01/29 11:39:45;;;;;;;4.35;3.50;;;0.60;99.90;;;;;;5037152;28;20110;-65
2021/01/29 11:42:36;;;;;;;3.70;3.22;;;0.60;99.90;;;;;;5040360;28;20060;-64
2021/01/29 11:45:15;;;;;;;4.13;3.05;;;0.50;99.90;;;;;;5033872;28;20155;-67
2021/01/29 11:48:00;;;;;;;2.50;2.30;;;0.40;99.90;;;;;;5037161;28;20520;-64
2021/01/29 11:50:34;;;;;;;3.80;3.50;;;0.40;99.90;;;;;;5034350;28;20567;-66
2021/01/29 11:53:21;;;;;;;4.68;3.75;;;0.20;99.90;;;;;;5034432;28;20611;-64
2021/01/29 11:55:55;;;;;;;4.00;3.20;;;0.20;99.90;;;;;;5034151;28;20101;-64
2021/01/29 11:58:54;;;;;;;3.78;2.67;;;0.20;99.90;;;;;;5039998;28;20048;-64
2021/01/29 12:01:46;;;;;;;5.03;4.30;;;0.30;99.90;;;;;;5032805;28;20052;-65
2021/01/29 12:04:13;;;;;;;5.05;4.25;;;0.30;99.90;;;;;;5039819;28;20448;-67
2021/01/29 12:06:51;;;;;;;3.97;3.58;;;0.20;99.90;;;;;;5031624;28;20108;-65
2021/01/29 12:09:36;;;;;;;5.65;3.90;;;0.20;99.90;;;;;;5042497;28;20129;-66
2021/01/29 12:12:30;;;;;;;4.22;3.45;;;0.10;99.90;;;;;;5032870;28;20045;-64
2021/01/29 12:15:14;;;;;;;6.63;3.60;;;0.00;99.90;;;;;;5033143;28;20063;-64
2021/01/29 12:17:49;;;;;;;5.78;3.58;;;0.00;99.90;;;;;;5032737;28;20151;-64
2021/01/29 12:20:30;;;;;;;3.72;3.03;;;0.10;99.90;;;;;;5042068;28;20033;-63
2021/01/29 12:23:03;;;;;;;5.82;3.17;;;0.10;99.90;;;;;;5033615;28;20064;-66
2021/01/29 12:26:02;;;;;;;4.82;3.85;;;0.20;99.90;;;;;;5040591;28;20589;-64
2021/01/29 12:28:49;;;;;;;4.78;2.80;;;0.30;99.90;;;;;;5035054;28;20392;-63
2021/01/29 12:31:41;;;;;;;5.05;2.78;;;0.50;99.90;;;;;;5039068;28;20049;-64
2021/01/29 12:34:30;;;;;;;3.47;2.60;;;0.50;99.90;;;;;;5036279;28;20041;-64
2021/01/29 12:37:17;;;;;;;4.45;2.72;;;0.50;99.90;;;;;;5032088;28;20049;-64
2021/01/29 12:39:50;;;;;;;6.22;3.75;;;0.50;99.90;;;;;;5038301;28;20156;-67
2021/01/29 12:42:45;;;;;;;3.33;3.03;;;0.60;99.90;;;;;;5036662;28;20045;-64
2021/01/29 12:45:17;;;;;;;3.55;2.50;;;0.60;99.90;;;;;;5028116;28;20067;-64
2021/01/29 12:47:55;;;;;;;3.22;2.47;;;0.60;99.90;;;;;;5036400;28;20049;-64
2021/01/29 12:50:36;;;;;;;3.90;3.50;;;0.60;99.90;;;;;;5035788;28;20059;-65
2021/01/29 12:53:30;;;;;;;3.28;2.97;;;0.60;99.90;;;;;;5039974;28;20504;-63
2021/01/29 12:56:18;;;;;;;4.25;2.88;;;0.60;99.90;;;;;;5034376;28;20049;-63
2021/01/29 12:58:54;;;;;;;4.05;3.22;;;0.50;99.90;;;;;;5035419;28;20552;-65
2021/01/29 13:01:35;;;;;;;3.00;2.65;;;0.50;99.90;;;;;;5034301;28;20068;-64
2021/01/29 13:04:24;;;;;;;3.53;2.80;;;0.50;99.90;;;;;;5035921;28;20045;-63
2021/01/29 13:07:15;;;;;;;2.92;2.60;;;0.50;99.90;;;;;;5034997;28;20053;-64
2021/01/29 13:10:03;;;;;;;4.63;3.38;;;0.40;99.90;;;;;;5038875;28;20076;-63
2021/01/29 13:12:48;;;;;;;3.55;3.25;;;0.40;99.90;;;;;;5034126;28;20077;-63
2021/01/29 13:15:15;;;;;;;3.75;2.78;;;0.40;99.90;;;;;;5036854;28;20076;-64
2021/01/29 13:17:47;;;;;;;6.50;4.13;;;0.30;99.90;;;;;;5031913;28;20848;-66
2021/01/29 13:20:29;;;;;;;3.40;3.08;;;0.30;99.90;;;;;;5038512;28;20064;-67
2021/01/29 13:23:15;;;;;;;3.40;2.70;;;0.30;99.90;;;;;;5031078;28;20134;-65
2021/01/29 13:26:10;;;;;;;4.68;3.45;;;0.20;99.90;;;;;;5033196;28;20173;-66
2021/01/29 13:28:40;;;;;;;3.53;2.80;;;0.20;99.90;;;;;;5034656;28;20488;-63
2021/01/29 13:31:16;;;;;;;6.80;3.15;;;0.20;99.90;;;;;;5039017;28;20108;-63
2021/01/29 13:33:50;;;;;;;4.90;2.67;;;0.20;99.90;;;;;;5032475;28;20791;-63
2021/01/29 13:36:23;;;;;;;5.68;3.50;;;0.10;99.90;;;;;;5032812;28;20048;-65
2021/01/29 13:38:50;;;;;;;3.05;2.67;;;0.10;99.90;;;;;;5031162;28;20065;-65
2021/01/29 13:41:21;;;;;;;5.65;2.33;;;0.10;99.90;;;;;;5039685;28;20115;-63
2021/01/29 13:43:48;;;;;;;4.28;2.63;;;0.10;99.90;;;;;;5035879;28;20053;-64
2021/01/29 13:46:32;;;;;;;4.18;3.75;;;0.10;99.90;;;;;;5040622;28;20045;-64
2021/01/29 13:49:11;;;;;;;6.40;2.63;;;0.10;99.90;;;;;;5033103;28;20045;-64
2021/01/29 13:51:39;;;;;;;3.40;2.55;;;0.10;99.90;;;;;;5036183;28;20052;-64
2021/01/29 13:54:11;;;;;;;3.60;2.80;;;0.10;99.90;;;;;;5033913;28;20052;-63
2021/01/29 13:56:45;;;;;;;6.95;2.70;;;0.10;99.90;;;;;;5038055;28;20045;-63
2021/01/29 13:59:28;;;;;;;3.78;2.88;;;0.10;99.90;;;;;;5034212;28;20040;-63
2021/01/29 14:02:04;;;;;;;3.47;3.05;;;0.10;99.90;;;;;;5036345;28;20446;-64
2021/01/29 14:04:38;;;;;;;4.88;2.50;;;0.10;99.90;;;;;;5027351;28;20063;-64
2021/01/29 14:07:05;;;;;;;4.47;2.88;;;0.00;99.90;;;;;;5038978;28;20044;-65
2021/01/29 14:09:32;;;;;;;6.35;3.20;;;0.00;99.90;;;;;;5035787;28;20133;-63
2021/01/29 14:12:04;;;;;;;5.25;3.17;;;0.00;99.90;;;;;;5036395;28;20140;-63
2021/01/29 14:14:56;;;;;;;3.58;2.60;;;0.00;99.90;;;;;;5036490;28;20055;-63
2021/01/29 14:17:31;;;;;;;3.35;3.05;;;-0.10;99.90;;;;;;5035450;28;20065;-64
2021/01/29 14:20:12;;;;;;;4.00;2.65;;;0.00;99.90;;;;;;5040887;28;20096;-63
2021/01/29 14:23:02;;;;;;;7.00;2.95;;;0.00;99.90;;;;;;5032979;28;20643;-63
2021/01/29 14:25:47;;;;;;;5.03;2.90;;;0.00;99.90;;;;;;5039461;28;20445;-63